sensor_id;sensor_type;location;lat;lon;timestamp;P1;durP1;ratioP1;P2;durP2;ratioP2
4686;SDS011;2357;47.316;-1.348;2023-06-22T00:02:13;4.00;;;2.50;;
4686;SDS011;2357;47.316;-1.348;2023-06-22T00:04:39;5.67;;;2.30;;
4686;SDS011;2357;47.316;-1.348;2023-06-22T00:07:05;2.40;;;2.30;;
4686;SDS011;2357;47.316;-1.348;2023-06-22T00:09:31;3.57;;;2.20;;
4686;SDS011;2357;47.316;-1.348;2023-06-22T00:11:57;4.87;;;1.97;;
4686;SDS011;2357;47.316;-1.348;2023-06-22T00:14:23;4.20;;;2.27;;
4686;SDS011;2357;47.316;-1.348;2023-06-22T00:16:48;3.80;;;2.27;;
4686;SDS011;2357;47.316;-1.348;2023-06-22T00:19:15;6.30;;;2.80;;
4686;SDS011;2357;47.316;-1.348;2023-06-22T00:21:40;1.97;;;1.80;;
4686;SDS011;2357;47.316;-1.348;2023-06-22T00:24:08;4.93;;;2.07;;
4686;SDS011;2357;47.316;-1.348;2023-06-22T00:26:33;4.03;;;2.37;;
4686;SDS011;2357;47.316;-1.348;2023-06-22T00:28:59;4.27;;;2.10;;
4686;SDS011;2357;47.316;-1.348;2023-06-22T00:31:25;5.40;;;2.57;;
4686;SDS011;2357;47.316;-1.348;2023-06-22T00:33:50;3.50;;;2.30;;
4686;SDS011;2357;47.316;-1.348;2023-06-22T00:36:16;11.13;;;2.90;;
4686;SDS011;2357;47.316;-1.348;2023-06-22T00:38:42;4.00;;;2.33;;
4686;SDS011;2357;47.316;-1.348;2023-06-22T00:41:08;3.33;;;1.60;;
4686;SDS011;2357;47.316;-1.348;2023-06-22T00:43:34;2.77;;;2.57;;
4686;SDS011;2357;47.316;-1.348;2023-06-22T00:46:00;2.10;;;2.00;;
4686;SDS011;2357;47.316;-1.348;2023-06-22T00:48:26;3.03;;;1.77;;
4686;SDS011;2357;47.316;-1.348;2023-06-22T00:50:52;4.27;;;1.97;;
4686;SDS011;2357;47.316;-1.348;2023-06-22T00:53:20;1.93;;;1.73;;
4686;SDS011;2357;47.316;-1.348;2023-06-22T00:55:46;8.13;;;2.20;;
4686;SDS011;2357;47.316;-1.348;2023-06-22T00:58:13;3.50;;;2.20;;
4686;SDS011;2357;47.316;-1.348;2023-06-22T01:00:39;7.60;;;2.20;;
4686;SDS011;2357;47.316;-1.348;2023-06-22T01:03:06;2.33;;;2.10;;
4686;SDS011;2357;47.316;-1.348;2023-06-22T01:05:35;2.40;;;2.20;;
4686;SDS011;2357;47.316;-1.348;2023-06-22T01:08:19;1.93;;;1.83;;
4686;SDS011;2357;47.316;-1.348;2023-06-22T01:13:35;7.80;;;2.77;;
4686;SDS011;2357;47.316;-1.348;2023-06-22T01:16:06;7.00;;;2.13;;
4686;SDS011;2357;47.316;-1.348;2023-06-22T01:18:42;6.00;;;2.10;;
4686;SDS011;2357;47.316;-1.348;2023-06-22T01:21:10;3.43;;;2.43;;
4686;SDS011;2357;47.316;-1.348;2023-06-22T01:29:19;4.77;;;1.97;;
4686;SDS011;2357;47.316;-1.348;2023-06-22T01:31:47;3.03;;;2.17;;
4686;SDS011;2357;47.316;-1.348;2023-06-22T01:34:15;3.40;;;2.10;;
4686;SDS011;2357;47.316;-1.348;2023-06-22T01:36:42;3.13;;;2.10;;
4686;SDS011;2357;47.316;-1.348;2023-06-22T01:39:09;3.70;;;2.40;;
4686;SDS011;2357;47.316;-1.348;2023-06-22T01:41:37;1.93;;;1.63;;
4686;SDS011;2357;47.316;-1.348;2023-06-22T01:44:05;2.93;;;2.60;;
4686;SDS011;2357;47.316;-1.348;2023-06-22T01:46:34;12.67;;;2.43;;
4686;SDS011;2357;47.316;-1.348;2023-06-22T01:49:02;3.00;;;1.93;;
4686;SDS011;2357;47.316;-1.348;2023-06-22T01:51:28;6.13;;;2.47;;
4686;SDS011;2357;47.316;-1.348;2023-06-22T01:53:55;2.17;;;1.97;;
4686;SDS011;2357;47.316;-1.348;2023-06-22T01:56:20;2.50;;;2.20;;
4686;SDS011;2357;47.316;-1.348;2023-06-22T01:59:01;3.33;;;2.37;;
4686;SDS011;2357;47.316;-1.348;2023-06-22T02:01:43;3.30;;;2.20;;
4686;SDS011;2357;47.316;-1.348;2023-06-22T02:04:21;2.60;;;2.10;;
4686;SDS011;2357;47.316;-1.348;2023-06-22T02:06:55;2.80;;;2.57;;
4686;SDS011;2357;47.316;-1.348;2023-06-22T02:09:23;2.43;;;2.23;;
4686;SDS011;2357;47.316;-1.348;2023-06-22T02:11:53;2.47;;;2.10;;
4686;SDS011;2357;47.316;-1.348;2023-06-22T02:14:21;4.50;;;2.70;;
4686;SDS011;2357;47.316;-1.348;2023-06-22T02:16:48;5.90;;;1.93;;
4686;SDS011;2357;47.316;-1.348;2023-06-22T02:19:16;2.20;;;1.90;;
4686;SDS011;2357;47.316;-1.348;2023-06-22T02:21:43;2.10;;;1.90;;
4686;SDS011;2357;47.316;-1.348;2023-06-22T02:24:10;4.30;;;2.20;;
4686;SDS011;2357;47.316;-1.348;2023-06-22T02:26:35;2.43;;;2.13;;
4686;SDS011;2357;47.316;-1.348;2023-06-22T02:29:03;3.30;;;2.07;;
4686;SDS011;2357;47.316;-1.348;2023-06-22T02:31:29;3.53;;;2.37;;
4686;SDS011;2357;47.316;-1.348;2023-06-22T02:33:55;3.27;;;2.40;;
4686;SDS011;2357;47.316;-1.348;2023-06-22T02:36:25;2.47;;;2.20;;
4686;SDS011;2357;47.316;-1.348;2023-06-22T02:38:52;4.13;;;1.83;;
4686;SDS011;2357;47.316;-1.348;2023-06-22T02:41:18;2.77;;;2.20;;
4686;SDS011;2357;47.316;-1.348;2023-06-22T02:43:47;7.20;;;2.40;;
4686;SDS011;2357;47.316;-1.348;2023-06-22T02:46:13;2.60;;;2.40;;
4686;SDS011;2357;47.316;-1.348;2023-06-22T02:48:39;3.10;;;2.17;;
4686;SDS011;2357;47.316;-1.348;2023-06-22T02:51:05;4.00;;;2.70;;
4686;SDS011;2357;47.316;-1.348;2023-06-22T02:53:31;2.60;;;1.90;;
4686;SDS011;2357;47.316;-1.348;2023-06-22T02:55:57;5.13;;;2.40;;
4686;SDS011;2357;47.316;-1.348;2023-06-22T02:58:24;2.20;;;2.10;;
4686;SDS011;2357;47.316;-1.348;2023-06-22T03:00:50;2.17;;;2.07;;
4686;SDS011;2357;47.316;-1.348;2023-06-22T03:03:18;7.70;;;3.00;;
4686;SDS011;2357;47.316;-1.348;2023-06-22T03:05:44;3.60;;;2.33;;
4686;SDS011;2357;47.316;-1.348;2023-06-22T03:08:10;2.40;;;2.03;;
4686;SDS011;2357;47.316;-1.348;2023-06-22T03:10:36;3.77;;;2.30;;
4686;SDS011;2357;47.316;-1.348;2023-06-22T03:13:02;2.30;;;2.20;;
4686;SDS011;2357;47.316;-1.348;2023-06-22T03:15:27;4.43;;;2.50;;
4686;SDS011;2357;47.316;-1.348;2023-06-22T03:17:54;3.80;;;2.10;;
4686;SDS011;2357;47.316;-1.348;2023-06-22T03:20:20;4.47;;;2.03;;
4686;SDS011;2357;47.316;-1.348;2023-06-22T03:22:46;2.90;;;2.70;;
4686;SDS011;2357;47.316;-1.348;2023-06-22T03:25:13;2.80;;;2.50;;
4686;SDS011;2357;47.316;-1.348;2023-06-22T03:27:40;4.63;;;2.20;;
4686;SDS011;2357;47.316;-1.348;2023-06-22T03:30:07;2.27;;;2.00;;
4686;SDS011;2357;47.316;-1.348;2023-06-22T03:32:34;3.87;;;2.80;;
4686;SDS011;2357;47.316;-1.348;2023-06-22T03:34:59;6.27;;;2.70;;
4686;SDS011;2357;47.316;-1.348;2023-06-22T03:37:25;4.30;;;3.07;;
4686;SDS011;2357;47.316;-1.348;2023-06-22T03:39:52;3.80;;;2.60;;
4686;SDS011;2357;47.316;-1.348;2023-06-22T03:42:19;3.27;;;2.90;;
4686;SDS011;2357;47.316;-1.348;2023-06-22T03:44:44;8.77;;;3.40;;
4686;SDS011;2357;47.316;-1.348;2023-06-22T03:47:10;2.73;;;2.43;;
4686;SDS011;2357;47.316;-1.348;2023-06-22T03:49:36;2.67;;;2.47;;
4686;SDS011;2357;47.316;-1.348;2023-06-22T03:52:02;9.70;;;2.90;;
4686;SDS011;2357;47.316;-1.348;2023-06-22T03:54:28;2.80;;;2.13;;
4686;SDS011;2357;47.316;-1.348;2023-06-22T03:56:54;3.23;;;2.37;;
4686;SDS011;2357;47.316;-1.348;2023-06-22T03:59:21;4.40;;;3.07;;
4686;SDS011;2357;47.316;-1.348;2023-06-22T04:01:47;8.90;;;2.90;;
4686;SDS011;2357;47.316;-1.348;2023-06-22T04:04:12;3.57;;;3.23;;
4686;SDS011;2357;47.316;-1.348;2023-06-22T04:06:38;7.90;;;2.70;;
4686;SDS011;2357;47.316;-1.348;2023-06-22T04:09:05;4.00;;;2.60;;
4686;SDS011;2357;47.316;-1.348;2023-06-22T04:11:31;2.70;;;2.47;;
4686;SDS011;2357;47.316;-1.348;2023-06-22T04:13:57;4.93;;;2.87;;
4686;SDS011;2357;47.316;-1.348;2023-06-22T04:16:22;2.33;;;2.07;;
4686;SDS011;2357;47.316;-1.348;2023-06-22T04:18:48;3.73;;;2.70;;
4686;SDS011;2357;47.316;-1.348;2023-06-22T04:21:13;4.40;;;2.43;;
4686;SDS011;2357;47.316;-1.348;2023-06-22T04:23:39;5.70;;;2.87;;
4686;SDS011;2357;47.316;-1.348;2023-06-22T04:26:05;3.50;;;3.10;;
4686;SDS011;2357;47.316;-1.348;2023-06-22T04:28:30;6.73;;;3.17;;
4686;SDS011;2357;47.316;-1.348;2023-06-22T04:31:00;5.30;;;3.10;;
4686;SDS011;2357;47.316;-1.348;2023-06-22T04:33:28;4.30;;;3.30;;
4686;SDS011;2357;47.316;-1.348;2023-06-22T04:35:54;5.63;;;3.30;;
4686;SDS011;2357;47.316;-1.348;2023-06-22T04:38:25;2.37;;;2.17;;
4686;SDS011;2357;47.316;-1.348;2023-06-22T04:40:51;9.13;;;4.50;;
4686;SDS011;2357;47.316;-1.348;2023-06-22T04:43:18;2.60;;;2.40;;
4686;SDS011;2357;47.316;-1.348;2023-06-22T04:45:44;3.00;;;2.80;;
4686;SDS011;2357;47.316;-1.348;2023-06-22T04:48:09;3.87;;;2.80;;
4686;SDS011;2357;47.316;-1.348;2023-06-22T04:50:38;6.20;;;3.50;;
4686;SDS011;2357;47.316;-1.348;2023-06-22T04:53:04;5.10;;;3.70;;
4686;SDS011;2357;47.316;-1.348;2023-06-22T04:55:31;6.00;;;3.93;;
4686;SDS011;2357;47.316;-1.348;2023-06-22T04:57:57;4.33;;;3.03;;
4686;SDS011;2357;47.316;-1.348;2023-06-22T05:00:29;7.60;;;3.50;;
4686;SDS011;2357;47.316;-1.348;2023-06-22T05:02:55;8.17;;;3.40;;
4686;SDS011;2357;47.316;-1.348;2023-06-22T05:05:23;8.43;;;3.23;;
4686;SDS011;2357;47.316;-1.348;2023-06-22T05:07:49;3.73;;;3.20;;
4686;SDS011;2357;47.316;-1.348;2023-06-22T05:10:18;7.60;;;2.83;;
4686;SDS011;2357;47.316;-1.348;2023-06-22T05:12:45;7.17;;;2.90;;
4686;SDS011;2357;47.316;-1.348;2023-06-22T05:15:11;4.30;;;3.27;;
4686;SDS011;2357;47.316;-1.348;2023-06-22T05:17:37;4.33;;;3.30;;
4686;SDS011;2357;47.316;-1.348;2023-06-22T05:20:08;3.63;;;3.20;;
4686;SDS011;2357;47.316;-1.348;2023-06-22T05:22:35;4.90;;;3.43;;
4686;SDS011;2357;47.316;-1.348;2023-06-22T05:25:01;5.63;;;3.10;;
4686;SDS011;2357;47.316;-1.348;2023-06-22T05:27:26;3.40;;;3.10;;
4686;SDS011;2357;47.316;-1.348;2023-06-22T05:29:52;12.13;;;3.93;;
4686;SDS011;2357;47.316;-1.348;2023-06-22T05:32:17;9.33;;;2.80;;
4686;SDS011;2357;47.316;-1.348;2023-06-22T05:34:43;16.83;;;4.30;;
4686;SDS011;2357;47.316;-1.348;2023-06-22T05:37:09;6.50;;;3.27;;
4686;SDS011;2357;47.316;-1.348;2023-06-22T05:39:35;5.10;;;3.63;;
4686;SDS011;2357;47.316;-1.348;2023-06-22T05:42:04;5.50;;;3.20;;
4686;SDS011;2357;47.316;-1.348;2023-06-22T05:44:32;3.30;;;3.00;;
4686;SDS011;2357;47.316;-1.348;2023-06-22T05:46:59;4.63;;;3.00;;
4686;SDS011;2357;47.316;-1.348;2023-06-22T05:49:24;6.63;;;3.80;;
4686;SDS011;2357;47.316;-1.348;2023-06-22T05:51:55;5.53;;;3.80;;
4686;SDS011;2357;47.316;-1.348;2023-06-22T05:54:22;5.70;;;3.30;;
4686;SDS011;2357;47.316;-1.348;2023-06-22T05:56:47;6.77;;;3.60;;
4686;SDS011;2357;47.316;-1.348;2023-06-22T05:59:13;4.87;;;3.37;;
4686;SDS011;2357;47.316;-1.348;2023-06-22T06:01:39;4.30;;;3.33;;
4686;SDS011;2357;47.316;-1.348;2023-06-22T06:04:05;3.87;;;2.77;;
4686;SDS011;2357;47.316;-1.348;2023-06-22T06:06:33;6.47;;;3.63;;
4686;SDS011;2357;47.316;-1.348;2023-06-22T06:09:02;5.80;;;2.83;;
4686;SDS011;2357;47.316;-1.348;2023-06-22T06:11:28;3.40;;;2.73;;
4686;SDS011;2357;47.316;-1.348;2023-06-22T06:13:54;5.47;;;2.83;;
4686;SDS011;2357;47.316;-1.348;2023-06-22T06:16:20;6.07;;;3.20;;
4686;SDS011;2357;47.316;-1.348;2023-06-22T06:18:46;4.23;;;3.30;;
4686;SDS011;2357;47.316;-1.348;2023-06-22T06:21:11;3.73;;;2.90;;
4686;SDS011;2357;47.316;-1.348;2023-06-22T06:23:37;3.53;;;2.70;;
4686;SDS011;2357;47.316;-1.348;2023-06-22T06:26:02;4.33;;;3.30;;
4686;SDS011;2357;47.316;-1.348;2023-06-22T06:28:31;3.00;;;2.53;;
4686;SDS011;2357;47.316;-1.348;2023-06-22T06:30:57;2.60;;;2.40;;
4686;SDS011;2357;47.316;-1.348;2023-06-22T06:33:23;3.47;;;3.17;;
4686;SDS011;2357;47.316;-1.348;2023-06-22T06:35:49;3.23;;;2.93;;
4686;SDS011;2357;47.316;-1.348;2023-06-22T06:38:15;2.97;;;2.87;;
4686;SDS011;2357;47.316;-1.348;2023-06-22T06:40:40;6.17;;;3.47;;
4686;SDS011;2357;47.316;-1.348;2023-06-22T06:43:06;3.90;;;3.23;;
4686;SDS011;2357;47.316;-1.348;2023-06-22T06:45:32;5.30;;;2.87;;
4686;SDS011;2357;47.316;-1.348;2023-06-22T06:47:59;2.60;;;2.40;;
4686;SDS011;2357;47.316;-1.348;2023-06-22T06:50:25;2.80;;;2.60;;
4686;SDS011;2357;47.316;-1.348;2023-06-22T06:52:51;6.63;;;2.90;;
4686;SDS011;2357;47.316;-1.348;2023-06-22T06:55:17;6.97;;;2.47;;
4686;SDS011;2357;47.316;-1.348;2023-06-22T06:57:44;5.07;;;3.13;;
4686;SDS011;2357;47.316;-1.348;2023-06-22T07:00:13;3.17;;;2.87;;
4686;SDS011;2357;47.316;-1.348;2023-06-22T07:02:40;4.43;;;2.60;;
4686;SDS011;2357;47.316;-1.348;2023-06-22T07:05:07;2.47;;;2.37;;
4686;SDS011;2357;47.316;-1.348;2023-06-22T07:07:33;6.53;;;2.60;;
4686;SDS011;2357;47.316;-1.348;2023-06-22T07:09:59;3.87;;;2.67;;
4686;SDS011;2357;47.316;-1.348;2023-06-22T07:12:25;2.80;;;2.60;;
4686;SDS011;2357;47.316;-1.348;2023-06-22T07:14:51;3.80;;;2.23;;
4686;SDS011;2357;47.316;-1.348;2023-06-22T07:17:17;6.30;;;3.33;;
4686;SDS011;2357;47.316;-1.348;2023-06-22T07:19:43;2.70;;;2.50;;
4686;SDS011;2357;47.316;-1.348;2023-06-22T07:22:09;2.10;;;2.00;;
4686;SDS011;2357;47.316;-1.348;2023-06-22T07:24:34;3.10;;;1.97;;
4686;SDS011;2357;47.316;-1.348;2023-06-22T07:27:00;4.10;;;2.47;;
4686;SDS011;2357;47.316;-1.348;2023-06-22T07:29:27;2.87;;;2.63;;
4686;SDS011;2357;47.316;-1.348;2023-06-22T07:31:52;3.27;;;2.60;;
4686;SDS011;2357;47.316;-1.348;2023-06-22T07:34:19;6.77;;;2.40;;
4686;SDS011;2357;47.316;-1.348;2023-06-22T07:36:45;2.30;;;2.03;;
4686;SDS011;2357;47.316;-1.348;2023-06-22T07:39:11;2.50;;;2.30;;
4686;SDS011;2357;47.316;-1.348;2023-06-22T07:41:38;2.77;;;2.57;;
4686;SDS011;2357;47.316;-1.348;2023-06-22T07:44:05;2.90;;;2.60;;
4686;SDS011;2357;47.316;-1.348;2023-06-22T07:46:31;3.60;;;2.07;;
4686;SDS011;2357;47.316;-1.348;2023-06-22T07:48:57;4.10;;;2.07;;
4686;SDS011;2357;47.316;-1.348;2023-06-22T07:51:23;4.70;;;2.63;;
4686;SDS011;2357;47.316;-1.348;2023-06-22T07:53:49;6.70;;;2.83;;
4686;SDS011;2357;47.316;-1.348;2023-06-22T07:56:14;18.67;;;2.57;;
4686;SDS011;2357;47.316;-1.348;2023-06-22T07:58:44;4.17;;;2.30;;
4686;SDS011;2357;47.316;-1.348;2023-06-22T08:01:11;2.10;;;1.90;;
4686;SDS011;2357;47.316;-1.348;2023-06-22T08:03:37;9.63;;;2.90;;
4686;SDS011;2357;47.316;-1.348;2023-06-22T08:06:02;4.93;;;3.00;;
4686;SDS011;2357;47.316;-1.348;2023-06-22T08:08:28;5.13;;;2.57;;
4686;SDS011;2357;47.316;-1.348;2023-06-22T08:10:54;4.50;;;2.13;;
4686;SDS011;2357;47.316;-1.348;2023-06-22T08:13:19;2.33;;;2.23;;
4686;SDS011;2357;47.316;-1.348;2023-06-22T08:15:45;2.33;;;2.13;;
4686;SDS011;2357;47.316;-1.348;2023-06-22T08:18:11;2.37;;;1.67;;
4686;SDS011;2357;47.316;-1.348;2023-06-22T08:20:36;3.30;;;2.57;;
4686;SDS011;2357;47.316;-1.348;2023-06-22T08:23:02;2.43;;;2.30;;
4686;SDS011;2357;47.316;-1.348;2023-06-22T08:25:34;5.37;;;1.90;;
4686;SDS011;2357;47.316;-1.348;2023-06-22T08:28:01;3.83;;;2.50;;
4686;SDS011;2357;47.316;-1.348;2023-06-22T08:30:28;8.07;;;2.90;;
4686;SDS011;2357;47.316;-1.348;2023-06-22T08:32:53;1.77;;;1.60;;
4686;SDS011;2357;47.316;-1.348;2023-06-22T08:35:21;3.93;;;2.00;;
4686;SDS011;2357;47.316;-1.348;2023-06-22T08:37:47;3.70;;;1.90;;
4686;SDS011;2357;47.316;-1.348;2023-06-22T08:40:17;5.00;;;2.50;;
4686;SDS011;2357;47.316;-1.348;2023-06-22T08:42:44;2.20;;;2.00;;
4686;SDS011;2357;47.316;-1.348;2023-06-22T08:45:10;5.10;;;2.60;;
4686;SDS011;2357;47.316;-1.348;2023-06-22T08:47:37;6.90;;;2.73;;
4686;SDS011;2357;47.316;-1.348;2023-06-22T08:50:03;1.90;;;1.80;;
4686;SDS011;2357;47.316;-1.348;2023-06-22T08:52:30;9.87;;;2.37;;
4686;SDS011;2357;47.316;-1.348;2023-06-22T08:54:56;4.10;;;2.13;;
4686;SDS011;2357;47.316;-1.348;2023-06-22T08:57:23;3.83;;;2.40;;
4686;SDS011;2357;47.316;-1.348;2023-06-22T08:59:48;1.80;;;1.70;;
4686;SDS011;2357;47.316;-1.348;2023-06-22T09:02:17;4.57;;;2.07;;
4686;SDS011;2357;47.316;-1.348;2023-06-22T09:04:42;5.17;;;2.40;;
4686;SDS011;2357;47.316;-1.348;2023-06-22T09:07:08;2.20;;;2.00;;
4686;SDS011;2357;47.316;-1.348;2023-06-22T09:09:34;2.30;;;2.07;;
4686;SDS011;2357;47.316;-1.348;2023-06-22T09:11:59;7.70;;;2.13;;
4686;SDS011;2357;47.316;-1.348;2023-06-22T09:14:25;1.63;;;1.53;;
4686;SDS011;2357;47.316;-1.348;2023-06-22T09:16:51;2.37;;;2.17;;
4686;SDS011;2357;47.316;-1.348;2023-06-22T09:19:16;2.30;;;2.10;;
4686;SDS011;2357;47.316;-1.348;2023-06-22T09:21:42;4.53;;;2.00;;
4686;SDS011;2357;47.316;-1.348;2023-06-22T09:24:08;3.60;;;2.87;;
4686;SDS011;2357;47.316;-1.348;2023-06-22T09:26:34;2.63;;;2.40;;
4686;SDS011;2357;47.316;-1.348;2023-06-22T09:29:00;2.03;;;1.93;;
4686;SDS011;2357;47.316;-1.348;2023-06-22T09:31:25;1.70;;;1.43;;
4686;SDS011;2357;47.316;-1.348;2023-06-22T09:33:54;2.83;;;2.00;;
4686;SDS011;2357;47.316;-1.348;2023-06-22T09:36:22;3.13;;;2.20;;
4686;SDS011;2357;47.316;-1.348;2023-06-22T09:38:48;3.17;;;1.87;;
4686;SDS011;2357;47.316;-1.348;2023-06-22T09:41:20;4.27;;;2.13;;
4686;SDS011;2357;47.316;-1.348;2023-06-22T09:43:45;2.40;;;1.90;;
4686;SDS011;2357;47.316;-1.348;2023-06-22T09:46:13;2.50;;;2.13;;
4686;SDS011;2357;47.316;-1.348;2023-06-22T09:48:40;1.80;;;1.67;;
4686;SDS011;2357;47.316;-1.348;2023-06-22T09:51:05;2.73;;;2.27;;
4686;SDS011;2357;47.316;-1.348;2023-06-22T09:53:31;1.97;;;1.87;;
4686;SDS011;2357;47.316;-1.348;2023-06-22T09:55:57;1.87;;;1.77;;
4686;SDS011;2357;47.316;-1.348;2023-06-22T09:58:22;7.40;;;1.70;;
4686;SDS011;2357;47.316;-1.348;2023-06-22T10:00:48;1.47;;;1.30;;
4686;SDS011;2357;47.316;-1.348;2023-06-22T10:03:14;1.77;;;1.67;;
4686;SDS011;2357;47.316;-1.348;2023-06-22T10:05:39;2.13;;;1.80;;
4686;SDS011;2357;47.316;-1.348;2023-06-22T10:08:05;9.60;;;2.17;;
4686;SDS011;2357;47.316;-1.348;2023-06-22T10:10:32;3.47;;;2.10;;
4686;SDS011;2357;47.316;-1.348;2023-06-22T10:13:02;5.57;;;2.20;;
4686;SDS011;2357;47.316;-1.348;2023-06-22T10:15:34;3.90;;;1.83;;
4686;SDS011;2357;47.316;-1.348;2023-06-22T10:17:59;3.73;;;1.67;;
4686;SDS011;2357;47.316;-1.348;2023-06-22T10:20:25;1.60;;;1.50;;
4686;SDS011;2357;47.316;-1.348;2023-06-22T10:22:51;1.97;;;1.87;;
4686;SDS011;2357;47.316;-1.348;2023-06-22T10:25:17;2.07;;;1.53;;
4686;SDS011;2357;47.316;-1.348;2023-06-22T10:27:42;2.97;;;2.17;;
4686;SDS011;2357;47.316;-1.348;2023-06-22T10:30:09;3.00;;;1.70;;
4686;SDS011;2357;47.316;-1.348;2023-06-22T10:32:37;1.63;;;1.53;;
4686;SDS011;2357;47.316;-1.348;2023-06-22T10:35:04;3.43;;;2.07;;
4686;SDS011;2357;47.316;-1.348;2023-06-22T10:37:30;3.93;;;1.70;;
4686;SDS011;2357;47.316;-1.348;2023-06-22T10:39:56;1.43;;;1.33;;
4686;SDS011;2357;47.316;-1.348;2023-06-22T10:42:21;1.13;;;1.13;;
4686;SDS011;2357;47.316;-1.348;2023-06-22T10:44:47;5.30;;;1.40;;
4686;SDS011;2357;47.316;-1.348;2023-06-22T10:47:13;1.43;;;1.33;;
4686;SDS011;2357;47.316;-1.348;2023-06-22T10:49:38;1.57;;;1.47;;
4686;SDS011;2357;47.316;-1.348;2023-06-22T10:52:08;2.20;;;2.07;;
4686;SDS011;2357;47.316;-1.348;2023-06-22T10:54:37;1.73;;;1.63;;
4686;SDS011;2357;47.316;-1.348;2023-06-22T10:57:03;1.40;;;1.30;;
4686;SDS011;2357;47.316;-1.348;2023-06-22T10:59:29;2.23;;;1.80;;
4686;SDS011;2357;47.316;-1.348;2023-06-22T11:01:55;2.00;;;1.70;;
4686;SDS011;2357;47.316;-1.348;2023-06-22T11:04:22;1.70;;;1.60;;
4686;SDS011;2357;47.316;-1.348;2023-06-22T11:06:48;2.57;;;1.90;;
4686;SDS011;2357;47.316;-1.348;2023-06-22T11:09:14;2.20;;;1.83;;
4686;SDS011;2357;47.316;-1.348;2023-06-22T11:11:49;2.70;;;1.70;;
4686;SDS011;2357;47.316;-1.348;2023-06-22T11:14:16;1.70;;;1.60;;
4686;SDS011;2357;47.316;-1.348;2023-06-22T11:16:41;2.07;;;1.87;;
4686;SDS011;2357;47.316;-1.348;2023-06-22T11:19:07;2.33;;;2.10;;
4686;SDS011;2357;47.316;-1.348;2023-06-22T11:21:33;1.70;;;1.60;;
4686;SDS011;2357;47.316;-1.348;2023-06-22T11:23:59;2.33;;;1.77;;
4686;SDS011;2357;47.316;-1.348;2023-06-22T11:26:25;8.43;;;1.97;;
4686;SDS011;2357;47.316;-1.348;2023-06-22T11:28:54;3.27;;;2.07;;
4686;SDS011;2357;47.316;-1.348;2023-06-22T11:31:20;5.43;;;1.70;;
4686;SDS011;2357;47.316;-1.348;2023-06-22T11:33:46;4.83;;;1.50;;
4686;SDS011;2357;47.316;-1.348;2023-06-22T11:36:12;4.90;;;1.80;;
4686;SDS011;2357;47.316;-1.348;2023-06-22T11:38:39;1.60;;;1.50;;
4686;SDS011;2357;47.316;-1.348;2023-06-22T11:41:09;3.90;;;1.67;;
4686;SDS011;2357;47.316;-1.348;2023-06-22T11:43:35;1.53;;;1.43;;
4686;SDS011;2357;47.316;-1.348;2023-06-22T11:46:05;1.73;;;1.63;;
4686;SDS011;2357;47.316;-1.348;2023-06-22T11:48:31;1.53;;;1.20;;
4686;SDS011;2357;47.316;-1.348;2023-06-22T11:50:57;1.60;;;1.50;;
4686;SDS011;2357;47.316;-1.348;2023-06-22T11:53:25;1.40;;;1.30;;
4686;SDS011;2357;47.316;-1.348;2023-06-22T11:55:51;2.20;;;2.00;;
4686;SDS011;2357;47.316;-1.348;2023-06-22T11:58:20;1.70;;;1.60;;
4686;SDS011;2357;47.316;-1.348;2023-06-22T12:00:46;2.17;;;1.77;;
4686;SDS011;2357;47.316;-1.348;2023-06-22T12:03:12;1.77;;;1.67;;
4686;SDS011;2357;47.316;-1.348;2023-06-22T12:05:41;1.83;;;1.70;;
4686;SDS011;2357;47.316;-1.348;2023-06-22T12:08:07;1.30;;;1.20;;
4686;SDS011;2357;47.316;-1.348;2023-06-22T12:10:32;1.73;;;1.20;;
4686;SDS011;2357;47.316;-1.348;2023-06-22T12:12:59;1.67;;;1.57;;
4686;SDS011;2357;47.316;-1.348;2023-06-22T12:15:25;5.43;;;1.67;;
4686;SDS011;2357;47.316;-1.348;2023-06-22T12:17:51;2.50;;;1.50;;
4686;SDS011;2357;47.316;-1.348;2023-06-22T12:20:17;1.40;;;1.30;;
4686;SDS011;2357;47.316;-1.348;2023-06-22T12:22:43;1.50;;;1.40;;
4686;SDS011;2357;47.316;-1.348;2023-06-22T12:25:09;1.90;;;1.80;;
4686;SDS011;2357;47.316;-1.348;2023-06-22T12:27:35;2.50;;;1.57;;
4686;SDS011;2357;47.316;-1.348;2023-06-22T12:30:02;1.73;;;1.37;;
4686;SDS011;2357;47.316;-1.348;2023-06-22T12:32:28;1.50;;;1.40;;
4686;SDS011;2357;47.316;-1.348;2023-06-22T12:34:54;1.60;;;1.50;;
4686;SDS011;2357;47.316;-1.348;2023-06-22T12:37:20;2.23;;;1.80;;
4686;SDS011;2357;47.316;-1.348;2023-06-22T12:39:46;1.80;;;1.70;;
4686;SDS011;2357;47.316;-1.348;2023-06-22T12:42:11;1.33;;;1.33;;
4686;SDS011;2357;47.316;-1.348;2023-06-22T12:44:37;1.87;;;1.77;;
4686;SDS011;2357;47.316;-1.348;2023-06-22T12:47:04;1.20;;;1.20;;
4686;SDS011;2357;47.316;-1.348;2023-06-22T12:49:30;1.33;;;1.23;;
4686;SDS011;2357;47.316;-1.348;2023-06-22T12:51:56;1.20;;;1.10;;
4686;SDS011;2357;47.316;-1.348;2023-06-22T12:54:22;1.77;;;1.60;;
4686;SDS011;2357;47.316;-1.348;2023-06-22T12:56:49;1.47;;;1.37;;
4686;SDS011;2357;47.316;-1.348;2023-06-22T12:59:15;4.00;;;1.40;;
4686;SDS011;2357;47.316;-1.348;2023-06-22T13:01:42;3.13;;;1.40;;
4686;SDS011;2357;47.316;-1.348;2023-06-22T13:04:09;1.30;;;1.20;;
4686;SDS011;2357;47.316;-1.348;2023-06-22T13:06:36;8.43;;;1.53;;
4686;SDS011;2357;47.316;-1.348;2023-06-22T13:09:01;2.10;;;1.30;;
4686;SDS011;2357;47.316;-1.348;2023-06-22T13:11:30;3.37;;;1.53;;
4686;SDS011;2357;47.316;-1.348;2023-06-22T13:13:55;1.53;;;1.40;;
4686;SDS011;2357;47.316;-1.348;2023-06-22T13:16:21;1.57;;;1.30;;
4686;SDS011;2357;47.316;-1.348;2023-06-22T13:18:47;2.90;;;1.57;;
4686;SDS011;2357;47.316;-1.348;2023-06-22T13:21:12;3.37;;;1.60;;
4686;SDS011;2357;47.316;-1.348;2023-06-22T13:23:39;2.40;;;1.50;;
4686;SDS011;2357;47.316;-1.348;2023-06-22T13:26:04;3.13;;;1.90;;
4686;SDS011;2357;47.316;-1.348;2023-06-22T13:28:30;1.50;;;1.40;;
4686;SDS011;2357;47.316;-1.348;2023-06-22T13:30:56;1.50;;;1.40;;
4686;SDS011;2357;47.316;-1.348;2023-06-22T13:33:21;1.93;;;1.60;;
4686;SDS011;2357;47.316;-1.348;2023-06-22T13:35:47;5.53;;;1.30;;
4686;SDS011;2357;47.316;-1.348;2023-06-22T13:38:13;2.77;;;1.57;;
4686;SDS011;2357;47.316;-1.348;2023-06-22T13:40:38;1.40;;;1.20;;
4686;SDS011;2357;47.316;-1.348;2023-06-22T13:43:04;1.47;;;1.37;;
4686;SDS011;2357;47.316;-1.348;2023-06-22T13:45:30;1.30;;;1.20;;
4686;SDS011;2357;47.316;-1.348;2023-06-22T13:47:56;1.77;;;1.67;;
4686;SDS011;2357;47.316;-1.348;2023-06-22T13:50:22;2.90;;;1.70;;
4686;SDS011;2357;47.316;-1.348;2023-06-22T13:52:47;1.60;;;1.50;;
4686;SDS011;2357;47.316;-1.348;2023-06-22T13:55:13;3.03;;;1.27;;
4686;SDS011;2357;47.316;-1.348;2023-06-22T13:57:39;2.17;;;1.57;;
4686;SDS011;2357;47.316;-1.348;2023-06-22T14:00:06;1.33;;;1.23;;
4686;SDS011;2357;47.316;-1.348;2023-06-22T14:02:37;3.03;;;1.90;;
4686;SDS011;2357;47.316;-1.348;2023-06-22T14:05:03;1.77;;;1.67;;
4686;SDS011;2357;47.316;-1.348;2023-06-22T14:07:29;5.80;;;1.70;;
4686;SDS011;2357;47.316;-1.348;2023-06-22T14:09:54;3.53;;;1.57;;
4686;SDS011;2357;47.316;-1.348;2023-06-22T14:12:20;1.20;;;1.20;;
4686;SDS011;2357;47.316;-1.348;2023-06-22T14:14:46;1.40;;;1.30;;
4686;SDS011;2357;47.316;-1.348;2023-06-22T14:17:11;2.13;;;1.30;;
4686;SDS011;2357;47.316;-1.348;2023-06-22T14:19:37;1.57;;;1.33;;
4686;SDS011;2357;47.316;-1.348;2023-06-22T14:22:03;2.77;;;1.40;;
4686;SDS011;2357;47.316;-1.348;2023-06-22T14:24:29;3.20;;;2.03;;
4686;SDS011;2357;47.316;-1.348;2023-06-22T14:26:54;2.20;;;2.07;;
4686;SDS011;2357;47.316;-1.348;2023-06-22T14:29:21;2.60;;;1.83;;
4686;SDS011;2357;47.316;-1.348;2023-06-22T14:31:47;3.90;;;2.00;;
4686;SDS011;2357;47.316;-1.348;2023-06-22T14:34:13;1.47;;;1.37;;
4686;SDS011;2357;47.316;-1.348;2023-06-22T14:36:39;1.60;;;1.50;;
4686;SDS011;2357;47.316;-1.348;2023-06-22T14:39:05;3.83;;;1.70;;
4686;SDS011;2357;47.316;-1.348;2023-06-22T14:41:31;2.30;;;1.63;;
4686;SDS011;2357;47.316;-1.348;2023-06-22T14:43:57;1.97;;;1.47;;
4686;SDS011;2357;47.316;-1.348;2023-06-22T14:46:22;2.53;;;2.10;;
4686;SDS011;2357;47.316;-1.348;2023-06-22T14:48:48;3.67;;;2.00;;
4686;SDS011;2357;47.316;-1.348;2023-06-22T14:51:14;1.90;;;1.80;;
4686;SDS011;2357;47.316;-1.348;2023-06-22T14:53:40;2.73;;;2.50;;
4686;SDS011;2357;47.316;-1.348;2023-06-22T14:56:06;2.83;;;2.23;;
4686;SDS011;2357;47.316;-1.348;2023-06-22T14:58:33;2.87;;;2.30;;
4686;SDS011;2357;47.316;-1.348;2023-06-22T15:00:59;2.50;;;2.10;;
4686;SDS011;2357;47.316;-1.348;2023-06-22T15:03:25;2.10;;;1.93;;
4686;SDS011;2357;47.316;-1.348;2023-06-22T15:05:53;4.90;;;2.33;;